Time;durP1;ratioP1;P1;durP2;ratioP2;P2;SDS_P1;SDS_P2;PMS_P1;PMS_P2;Temp;Humidity;BMP_temperature;BMP_pressure;BME280_temperature;BME280_humidity;BME280_pressure;Samples;Min_cycle;Max_cycle;Signal;HPM_P1;HPM_P2
2023/08/09 00:00:42;;;;;;;14.68;7.68;;;17.00;91.60;;;;;;4946513;28;20421;-72
2023/08/09 00:03:08;;;;;;;12.13;6.90;;;17.10;91.50;;;;;;4943779;28;20487;-73
2023/08/09 00:05:34;;;;;;;10.57;6.45;;;17.10;91.50;;;;;;4946196;28;20031;-72
2023/08/09 00:08:00;;;;;;;14.43;7.10;;;17.10;91.40;;;;;;4943123;28;20499;-72
2023/08/09 00:10:26;;;;;;;12.68;6.47;;;17.00;91.50;;;;;;4949611;28;20178;-72
2023/08/09 00:12:52;;;;;;;13.93;7.53;;;17.10;91.60;;;;;;4950023;28;20066;-72
2023/08/09 00:15:18;;;;;;;15.35;6.93;;;17.00;91.60;;;;;;4959687;28;20039;-73
2023/08/09 00:17:44;;;;;;;11.00;7.03;;;17.10;91.60;;;;;;4963819;28;20084;-73
2023/08/09 00:20:11;;;;;;;13.75;7.63;;;17.00;91.60;;;;;;4966873;28;20049;-72
2023/08/09 00:22:38;;;;;;;12.70;6.45;;;17.00;91.60;;;;;;4966696;28;20034;-72
2023/08/09 00:25:04;;;;;;;11.52;6.68;;;17.00;91.70;;;;;;4956052;28;20420;-72
2023/08/09 00:27:30;;;;;;;11.23;6.72;;;17.00;91.90;;;;;;4953686;28;20117;-73
2023/08/09 00:29:55;;;;;;;13.35;5.88;;;17.00;91.90;;;;;;4966880;28;20121;-73
2023/08/09 00:32:21;;;;;;;10.75;6.68;;;17.00;92.00;;;;;;4967505;28;20039;-73
2023/08/09 00:34:47;;;;;;;18.65;7.50;;;17.10;92.00;;;;;;4980774;28;20034;-74
2023/08/09 00:37:13;;;;;;;12.93;7.00;;;17.00;92.00;;;;;;4970100;28;20030;-73
2023/08/09 00:39:39;;;;;;;12.98;6.47;;;17.10;92.10;;;;;;4970796;28;20047;-73
2023/08/09 00:42:04;;;;;;;17.08;7.25;;;17.10;92.00;;;;;;4975232;28;20062;-73
2023/08/09 00:44:30;;;;;;;16.73;7.78;;;17.00;92.10;;;;;;4973384;28;20045;-73
2023/08/09 00:46:56;;;;;;;12.13;6.72;;;17.00;92.20;;;;;;4975274;28;20026;-73
2023/08/09 00:49:21;;;;;;;13.57;7.45;;;17.00;92.30;;;;;;4970825;28;20130;-72
2023/08/09 00:51:48;;;;;;;16.25;8.00;;;17.10;92.20;;;;;;4976501;28;20169;-73
2023/08/09 00:54:14;;;;;;;12.23;7.47;;;17.10;92.20;;;;;;4973710;28;20043;-73
2023/08/09 00:56:40;;;;;;;13.43;7.25;;;17.00;92.30;;;;;;4978028;28;20041;-72
2023/08/09 00:59:06;;;;;;;14.77;7.95;;;17.10;92.40;;;;;;4989222;28;20035;-73
2023/08/09 01:01:31;;;;;;;13.07;7.05;;;17.10;92.40;;;;;;4970839;28;20041;-72
2023/08/09 01:03:58;;;;;;;11.63;7.70;;;17.00;92.50;;;;;;4975851;28;20042;-72
2023/08/09 01:06:48;;;;;;;13.52;6.85;;;17.00;92.60;;;;;;4981667;28;20026;-73
2023/08/09 01:09:36;;;;;;;12.73;8.13;;;17.10;92.60;;;;;;4987470;28;20074;-74
2023/08/09 01:12:10;;;;;;;11.23;7.90;;;17.10;92.60;;;;;;4969952;28;20058;-75
2023/08/09 01:14:42;;;;;;;18.20;8.38;;;17.00;92.60;;;;;;4965467;28;20134;-73
2023/08/09 01:17:12;;;;;;;13.93;7.93;;;17.00;92.80;;;;;;4950030;28;20027;-73
2023/08/09 01:19:39;;;;;;;13.07;7.70;;;17.00;92.80;;;;;;4968999;28;20062;-72
2023/08/09 01:22:17;;;;;;;12.63;8.05;;;17.10;92.90;;;;;;4973765;28;20023;-73
2023/08/09 01:24:44;;;;;;;15.13;8.75;;;17.10;92.90;;;;;;4965075;28;20071;-72
2023/08/09 01:27:10;;;;;;;14.18;8.38;;;17.00;92.90;;;;;;4969757;28;20026;-72
2023/08/09 01:29:37;;;;;;;15.10;9.20;;;17.10;92.90;;;;;;4947696;28;20058;-74
2023/08/09 01:32:03;;;;;;;14.18;8.70;;;17.00;92.90;;;;;;4944963;29;20035;-73
2023/08/09 01:34:30;;;;;;;14.52;9.80;;;17.00;93.00;;;;;;4947220;28;20426;-73
2023/08/09 01:37:03;;;;;;;13.07;8.73;;;17.10;93.20;;;;;;4950210;28;20019;-74
2023/08/09 01:39:34;;;;;;;13.20;9.93;;;17.10;93.20;;;;;;4966555;28;20050;-73
2023/08/09 01:42:01;;;;;;;15.73;12.35;;;17.10;93.20;;;;;;4964828;28;20475;-73
2023/08/09 01:44:27;;;;;;;16.48;11.50;;;17.10;93.20;;;;;;4964487;28;20283;-74
2023/08/09 01:46:53;;;;;;;15.75;11.07;;;17.10;93.20;;;;;;4965330;28;20034;-73
2023/08/09 01:49:21;;;;;;;18.25;13.90;;;17.10;93.20;;;;;;4965399;28;20047;-73
2023/08/09 01:51:48;;;;;;;18.67;13.82;;;17.10;93.30;;;;;;4966451;28;20014;-73
2023/08/09 01:54:14;;;;;;;19.63;13.93;;;17.10;93.30;;;;;;4965638;28;20039;-75
2023/08/09 01:56:41;;;;;;;17.35;13.95;;;17.10;93.30;;;;;;4957941;28;20457;-72
2023/08/09 01:59:08;;;;;;;18.85;14.60;;;17.10;93.30;;;;;;4948904;28;20057;-73
2023/08/09 02:01:37;;;;;;;21.48;16.60;;;17.10;93.30;;;;;;4946016;28;20180;-72
2023/08/09 02:04:04;;;;;;;24.17;15.73;;;17.10;93.30;;;;;;4948533;28;20037;-73
2023/08/09 02:06:32;;;;;;;20.75;15.50;;;17.10;93.30;;;;;;4945774;28;20046;-73
2023/08/09 02:09:02;;;;;;;18.88;16.23;;;17.10;93.40;;;;;;4951437;28;20033;-72
2023/08/09 02:11:27;;;;;;;19.67;16.20;;;17.10;93.40;;;;;;4967725;28;20554;-72
2023/08/09 02:13:53;;;;;;;20.67;16.13;;;17.10;93.40;;;;;;4955573;28;20035;-71
2023/08/09 02:16:19;;;;;;;23.42;17.63;;;17.10;93.40;;;;;;4949139;28;20063;-72
2023/08/09 02:18:45;;;;;;;27.95;18.27;;;17.10;93.50;;;;;;4968142;28;20198;-72
2023/08/09 02:21:11;;;;;;;22.30;17.25;;;17.10;93.50;;;;;;4966825;28;20044;-74
2023/08/09 02:23:38;;;;;;;20.27;15.73;;;17.10;93.50;;;;;;4973745;28;20039;-72
2023/08/09 02:26:04;;;;;;;14.05;9.32;;;17.10;93.50;;;;;;4969570;28;20388;-74
2023/08/09 02:28:30;;;;;;;10.98;7.00;;;17.10;93.40;;;;;;4967157;28;20083;-72
2023/08/09 02:30:56;;;;;;;7.38;4.97;;;17.00;93.20;;;;;;4971661;28;20391;-73
2023/08/09 02:33:22;;;;;;;7.53;4.47;;;16.90;92.90;;;;;;4973041;28;20061;-72
2023/08/09 02:35:59;;;;;;;6.10;4.18;;;16.80;93.00;;;;;;4959744;28;20042;-72
2023/08/09 02:38:26;;;;;;;6.90;4.22;;;16.80;93.00;;;;;;4955219;28;20055;-72
2023/08/09 02:40:51;;;;;;;7.95;4.50;;;16.80;93.00;;;;;;4965572;28;20031;-72
2023/08/09 02:43:18;;;;;;;7.07;4.28;;;16.70;93.00;;;;;;4963336;28;20065;-72
2023/08/09 02:45:45;;;;;;;7.20;3.97;;;16.80;93.00;;;;;;4954896;28;20151;-72
2023/08/09 02:48:11;;;;;;;7.40;4.50;;;16.70;93.10;;;;;;4952479;28;20031;-72
2023/08/09 02:50:37;;;;;;;7.50;4.00;;;16.80;93.10;;;;;;4965982;28;20043;-72
2023/08/09 02:53:04;;;;;;;7.85;4.60;;;16.70;93.20;;;;;;4968478;28;20046;-72
2023/08/09 02:55:31;;;;;;;7.10;4.55;;;16.70;93.20;;;;;;4983678;28;20121;-72
2023/08/09 02:57:57;;;;;;;6.65;4.38;;;16.80;93.20;;;;;;4969444;28;20035;-72
2023/08/09 03:00:23;;;;;;;7.68;5.25;;;16.80;93.20;;;;;;4953945;28;20118;-73
2023/08/09 03:02:49;;;;;;;7.82;4.88;;;16.70;93.20;;;;;;4953488;28;20118;-72
2023/08/09 03:05:15;;;;;;;8.20;5.10;;;16.70;93.10;;;;;;4966387;28;20623;-72
2023/08/09 03:07:41;;;;;;;8.15;5.25;;;16.70;93.10;;;;;;4965077;28;20042;-72
2023/08/09 03:10:08;;;;;;;8.40;5.25;;;16.70;93.20;;;;;;4948869;28;20441;-71
2023/08/09 03:12:34;;;;;;;10.00;5.63;;;16.70;93.20;;;;;;4955006;28;20082;-72
2023/08/09 03:15:04;;;;;;;9.65;5.53;;;16.70;93.10;;;;;;4959959;28;20097;-72
2023/08/09 03:17:30;;;;;;;9.10;5.78;;;16.70;93.00;;;;;;4968530;28;20866;-72
2023/08/09 03:19:56;;;;;;;7.82;5.38;;;16.70;93.10;;;;;;4967338;28;20034;-72
2023/08/09 03:22:23;;;;;;;9.05;5.57;;;16.70;93.10;;;;;;4972283;28;20093;-72
2023/08/09 03:24:48;;;;;;;8.20;5.40;;;16.70;93.20;;;;;;4956000;28;20180;-71
2023/08/09 03:27:14;;;;;;;8.57;6.10;;;16.70;93.20;;;;;;4951072;28;20064;-73
2023/08/09 03:29:40;;;;;;;7.90;5.80;;;16.70;93.20;;;;;;4946916;28;20043;-73
2023/08/09 03:32:06;;;;;;;9.23;5.80;;;16.70;93.20;;;;;;4966260;28;20027;-72
2023/08/09 03:34:31;;;;;;;8.93;5.93;;;16.60;93.20;;;;;;4979426;28;20122;-72
2023/08/09 03:36:57;;;;;;;9.98;6.88;;;16.60;93.30;;;;;;4962162;28;20503;-72
2023/08/09 03:39:23;;;;;;;12.48;7.45;;;16.60;93.30;;;;;;4970190;28;20167;-72
2023/08/09 03:41:49;;;;;;;11.27;7.03;;;16.60;93.30;;;;;;4981247;28;20133;-73
2023/08/09 03:44:15;;;;;;;11.88;8.00;;;16.60;93.30;;;;;;4971588;28;20486;-73
2023/08/09 03:46:42;;;;;;;12.73;8.65;;;16.60;93.30;;;;;;4971111;28;20081;-72
2023/08/09 03:49:07;;;;;;;12.68;9.20;;;16.60;93.30;;;;;;4968431;28;20445;-72
2023/08/09 03:51:33;;;;;;;13.20;8.82;;;16.60;93.30;;;;;;4968711;28;20034;-72
2023/08/09 03:54:00;;;;;;;14.50;9.65;;;16.60;93.40;;;;;;4966439;28;20070;-72
2023/08/09 03:56:26;;;;;;;14.00;9.52;;;16.50;93.30;;;;;;4970642;28;20093;-72
2023/08/09 03:58:51;;;;;;;17.23;10.40;;;16.50;93.30;;;;;;4969596;28;20066;-72
2023/08/09 04:01:17;;;;;;;14.55;9.68;;;16.50;93.40;;;;;;4963128;28;20510;-72
2023/08/09 04:03:43;;;;;;;13.65;10.27;;;16.40;93.30;;;;;;4966026;28;20468;-72
2023/08/09 04:06:13;;;;;;;14.40;10.70;;;16.40;93.40;;;;;;4973059;28;20026;-72
2023/08/09 04:08:39;;;;;;;15.63;10.68;;;16.40;93.30;;;;;;4972350;28;20038;-74
2023/08/09 04:11:05;;;;;;;15.32;10.57;;;16.30;93.30;;;;;;4978403;28;20070;-73
2023/08/09 04:13:31;;;;;;;14.23;10.20;;;16.30;93.30;;;;;;4969668;28;20038;-72
2023/08/09 04:15:57;;;;;;;15.00;10.98;;;16.30;93.40;;;;;;4969673;28;20033;-73
2023/08/09 04:18:22;;;;;;;15.75;10.85;;;16.30;93.40;;;;;;4972905;28;20511;-71
2023/08/09 04:20:49;;;;;;;13.57;10.02;;;16.30;93.30;;;;;;4963491;28;20341;-71
2023/08/09 04:23:15;;;;;;;14.23;10.10;;;16.30;93.40;;;;;;4964043;28;20035;-73
2023/08/09 04:25:41;;;;;;;14.48;10.43;;;16.30;93.40;;;;;;4964562;28;20026;-73
2023/08/09 04:28:10;;;;;;;13.23;9.07;;;16.30;93.50;;;;;;4999916;28;20089;-72
2023/08/09 04:30:36;;;;;;;14.85;10.13;;;16.20;93.40;;;;;;4960605;28;20050;-73
2023/08/09 04:33:03;;;;;;;12.68;9.15;;;16.20;93.50;;;;;;4965322;28;20042;-72
2023/08/09 04:35:33;;;;;;;13.23;9.95;;;16.30;93.50;;;;;;4958105;28;20031;-72
2023/08/09 04:38:00;;;;;;;14.77;10.20;;;16.20;93.50;;;;;;4965481;28;20035;-73
2023/08/09 04:40:26;;;;;;;13.05;10.60;;;16.20;93.40;;;;;;4949919;28;20047;-73
2023/08/09 04:42:51;;;;;;;14.02;9.85;;;16.10;93.40;;;;;;4946996;28;20038;-72
2023/08/09 04:45:18;;;;;;;14.15;10.13;;;16.10;93.40;;;;;;4983351;28;20137;-72
2023/08/09 04:47:44;;;;;;;13.07;9.55;;;16.10;93.40;;;;;;4960647;28;20381;-73
2023/08/09 04:50:09;;;;;;;17.30;11.23;;;16.10;93.40;;;;;;4960562;28;20511;-73
2023/08/09 04:52:36;;;;;;;15.82;10.38;;;16.10;93.40;;;;;;4968316;28;20069;-73
2023/08/09 04:55:03;;;;;;;13.90;11.13;;;16.10;93.40;;;;;;4971582;28;20589;-73
2023/08/09 04:57:31;;;;;;;13.90;11.02;;;16.10;93.40;;;;;;4973623;28;20568;-72
2023/08/09 04:59:57;;;;;;;15.85;11.50;;;16.10;93.30;;;;;;4971683;28;20038;-72
2023/08/09 05:02:22;;;;;;;14.02;10.57;;;16.10;93.20;;;;;;4967783;28;20176;-73
2023/08/09 05:04:48;;;;;;;16.27;11.82;;;16.10;93.30;;;;;;4969603;28;20500;-74
2023/08/09 05:07:14;;;;;;;15.32;11.93;;;16.10;93.20;;;;;;4973561;28;20030;-74
2023/08/09 05:09:40;;;;;;;16.02;11.50;;;16.10;93.10;;;;;;4965562;28;20054;-73
2023/08/09 05:12:06;;;;;;;14.65;11.15;;;16.10;93.10;;;;;;4967123;28;20053;-73
2023/08/09 05:14:32;;;;;;;14.73;11.55;;;16.10;93.00;;;;;;4947623;28;20245;-73
2023/08/09 05:16:58;;;;;;;16.90;13.40;;;16.10;93.00;;;;;;4950709;29;20023;-72
2023/08/09 05:19:24;;;;;;;16.02;12.65;;;16.10;93.00;;;;;;4955799;28;20518;-72
2023/08/09 05:21:50;;;;;;;14.07;10.95;;;16.10;92.90;;;;;;4973684;28;20054;-72
2023/08/09 05:24:15;;;;;;;18.05;13.10;;;16.20;92.90;;;;;;4979709;28;20035;-72
2023/08/09 05:26:41;;;;;;;15.70;12.38;;;16.20;92.80;;;;;;4958974;28;20479;-73
2023/08/09 05:29:07;;;;;;;18.35;12.95;;;16.20;92.70;;;;;;4965129;28;20046;-73
2023/08/09 05:31:33;;;;;;;15.60;12.32;;;16.30;92.70;;;;;;4960320;28;20041;-73
2023/08/09 05:33:58;;;;;;;17.17;13.35;;;16.40;92.60;;;;;;4967897;28;20061;-72
2023/08/09 05:36:24;;;;;;;15.35;12.30;;;16.40;92.40;;;;;;4957123;28;20034;-73
2023/08/09 05:38:50;;;;;;;15.82;12.40;;;16.40;92.40;;;;;;4951644;28;20050;-75
2023/08/09 05:41:16;;;;;;;16.42;14.05;;;16.40;92.30;;;;;;4954794;28;20042;-73
2023/08/09 05:43:41;;;;;;;18.23;15.00;;;16.40;92.20;;;;;;4968245;28;20063;-73
2023/08/09 05:46:07;;;;;;;19.27;14.65;;;16.50;92.40;;;;;;4967773;28;20101;-73
2023/08/09 05:48:33;;;;;;;18.35;15.27;;;16.50;92.30;;;;;;4964679;28;20389;-73
2023/08/09 05:50:59;;;;;;;20.38;17.48;;;16.60;92.30;;;;;;4968327;28;20037;-73
2023/08/09 05:53:25;;;;;;;20.30;16.67;;;16.60;92.20;;;;;;4967064;28;20086;-74
2023/08/09 05:55:50;;;;;;;19.30;15.25;;;16.70;92.10;;;;;;4966778;28;20026;-74
2023/08/09 05:58:16;;;;;;;18.75;16.55;;;16.80;92.20;;;;;;4961415;28;20041;-73
2023/08/09 06:00:42;;;;;;;22.05;16.42;;;16.90;92.20;;;;;;4963277;28;20034;-73
2023/08/09 06:03:08;;;;;;;19.67;16.17;;;17.10;92.10;;;;;;4962975;28;20031;-72
2023/08/09 06:05:33;;;;;;;18.23;15.60;;;17.10;91.60;;;;;;4966920;28;20510;-74
2023/08/09 06:07:59;;;;;;;18.80;14.98;;;17.30;91.40;;;;;;4966342;28;20066;-74
2023/08/09 06:10:25;;;;;;;17.10;14.88;;;17.30;91.00;;;;;;4969218;28;20026;-73
2023/08/09 06:12:52;;;;;;;16.00;13.35;;;17.40;90.80;;;;;;4960461;28;20083;-73
2023/08/09 06:15:18;;;;;;;17.27;14.15;;;17.40;90.60;;;;;;4947025;28;20391;-73
2023/08/09 06:17:44;;;;;;;17.48;13.35;;;17.40;90.50;;;;;;4945948;28;20548;-73
2023/08/09 06:20:13;;;;;;;14.70;12.60;;;17.50;90.10;;;;;;4961099;28;20097;-74
2023/08/09 06:22:39;;;;;;;16.13;11.90;;;17.60;90.00;;;;;;4964150;28;20533;-73
2023/08/09 06:25:06;;;;;;;12.73;10.98;;;17.70;90.10;;;;;;4963308;28;20038;-73
2023/08/09 06:27:31;;;;;;;15.20;11.65;;;17.80;89.90;;;;;;4966527;28;20039;-72
2023/08/09 06:29:57;;;;;;;13.55;10.75;;;17.80;89.30;;;;;;4959538;28;20310;-73
2023/08/09 06:32:23;;;;;;;13.70;10.55;;;17.80;89.50;;;;;;4946899;28;20031;-72
2023/08/09 06:34:49;;;;;;;13.75;11.15;;;17.80;89.00;;;;;;4953921;28;20031;-72
2023/08/09 06:37:14;;;;;;;16.48;10.27;;;17.90;88.80;;;;;;4949915;28;20119;-72
2023/08/09 06:39:40;;;;;;;15.27;11.13;;;18.00;88.80;;;;;;4967024;28;20086;-72
2023/08/09 06:42:06;;;;;;;14.65;11.10;;;18.00;88.30;;;;;;4950732;28;20066;-73
2023/08/09 06:44:31;;;;;;;13.43;10.23;;;18.00;88.10;;;;;;4957823;28;20031;-73
2023/08/09 06:46:57;;;;;;;17.33;11.32;;;18.10;88.00;;;;;;4953039;28;20407;-72
2023/08/09 06:49:23;;;;;;;16.15;11.18;;;18.10;87.60;;;;;;4955825;28;20118;-74
2023/08/09 06:51:49;;;;;;;16.67;12.15;;;18.30;88.00;;;;;;4966770;28;20142;-77
2023/08/09 06:54:14;;;;;;;14.68;10.85;;;18.40;87.70;;;;;;4960795;28;20126;-74
2023/08/09 06:56:41;;;;;;;12.05;9.70;;;18.50;87.30;;;;;;4966933;28;20474;-73
2023/08/09 06:59:07;;;;;;;15.35;11.15;;;18.60;86.90;;;;;;4965133;28;20043;-73
2023/08/09 07:01:32;;;;;;;16.70;10.93;;;18.60;86.40;;;;;;4951839;28;20481;-74
2023/08/09 07:03:58;;;;;;;12.90;10.48;;;18.60;85.90;;;;;;4970345;28;20371;-74
2023/08/09 07:06:24;;;;;;;17.73;11.38;;;18.60;86.00;;;;;;4970151;28;20276;-75
2023/08/09 07:08:53;;;;;;;15.65;10.20;;;18.50;85.40;;;;;;4965635;28;20051;-74
2023/08/09 07:11:20;;;;;;;14.48;10.38;;;18.60;85.90;;;;;;4967500;28;20037;-74
2023/08/09 07:13:45;;;;;;;14.85;10.60;;;18.80;85.30;;;;;;4956700;28;20035;-74
2023/08/09 07:16:11;;;;;;;14.40;9.95;;;18.80;85.20;;;;;;4966728;28;20034;-74
2023/08/09 07:18:37;;;;;;;14.27;9.40;;;18.90;85.20;;;;;;4967674;28;20069;-73
2023/08/09 07:21:03;;;;;;;12.10;8.90;;;18.90;84.30;;;;;;4948077;28;20027;-74
2023/08/09 07:23:29;;;;;;;13.55;9.57;;;18.90;83.90;;;;;;4965734;28;20046;-74
2023/08/09 07:25:55;;;;;;;15.27;9.00;;;18.90;83.00;;;;;;4955193;28;20486;-75
2023/08/09 07:28:20;;;;;;;14.35;8.23;;;18.90;83.10;;;;;;4953748;28;20504;-74
2023/08/09 07:30:50;;;;;;;11.93;8.20;;;18.90;82.90;;;;;;4961668;28;20089;-74
2023/08/09 07:33:16;;;;;;;10.52;8.20;;;18.90;82.10;;;;;;4964226;28;20039;-73
2023/08/09 07:35:42;;;;;;;11.07;8.00;;;19.00;81.90;;;;;;4965705;28;20041;-74
2023/08/09 07:38:07;;;;;;;11.50;7.78;;;19.00;82.30;;;;;;4962205;28;20109;-73
2023/08/09 07:40:33;;;;;;;12.75;8.25;;;19.10;82.10;;;;;;4977880;28;20053;-72
2023/08/09 07:43:00;;;;;;;12.35;8.07;;;19.40;82.10;;;;;;4961172;28;20338;-73
2023/08/09 07:45:25;;;;;;;13.38;7.72;;;19.60;80.30;;;;;;4953155;28;20564;-74
2023/08/09 07:47:51;;;;;;;12.10;6.85;;;19.60;78.50;;;;;;4961171;28;20110;-74
2023/08/09 07:50:17;;;;;;;9.82;6.70;;;19.70;79.20;;;;;;4949099;28;20055;-73
2023/08/09 07:52:43;;;;;;;10.40;5.60;;;20.00;78.80;;;;;;4957196;28;20074;-72
2023/08/09 07:55:10;;;;;;;8.45;5.15;;;19.90;77.60;;;;;;4948695;28;20097;-74
2023/08/09 07:57:36;;;;;;;11.15;4.90;;;20.10;78.00;;;;;;4958757;28;20035;-73
2023/08/09 08:00:17;;;;;;;9.85;4.78;;;20.00;75.90;;;;;;4967773;28;20455;-75
2023/08/09 08:02:45;;;;;;;8.27;4.53;;;20.00;76.30;;;;;;4968918;28;20348;-74
2023/08/09 08:05:12;;;;;;;10.00;4.60;;;20.00;75.80;;;;;;4966123;28;20042;-74
2023/08/09 08:07:38;;;;;;;9.75;5.13;;;20.20;75.20;;;;;;4943405;28;20118;-74
2023/08/09 08:10:08;;;;;;;11.70;4.70;;;20.30;73.90;;;;;;4952642;28;20566;-75
2023/08/09 08:12:38;;;;;;;8.15;4.30;;;20.30;74.90;;;;;;4961840;28;20042;-74
2023/08/09 08:15:04;;;;;;;11.40;4.40;;;20.50;74.30;;;;;;4957707;28;20091;-73
2023/08/09 08:17:31;;;;;;;9.68;4.07;;;20.30;74.30;;;;;;4952818;28;20043;-74
2023/08/09 08:19:57;;;;;;;10.52;3.90;;;20.30;74.60;;;;;;4960227;28;20039;-73
2023/08/09 08:22:23;;;;;;;8.80;4.13;;;20.20;74.30;;;;;;4952077;28;20035;-73
2023/08/09 08:24:49;;;;;;;9.75;3.75;;;19.60;75.20;;;;;;4956809;28;20066;-72
2023/08/09 08:27:15;;;;;;;8.10;3.70;;;19.30;74.70;;;;;;4957294;28;20056;-72
2023/08/09 08:29:41;;;;;;;8.57;3.55;;;19.20;72.70;;;;;;4953222;28;20166;-73
2023/08/09 08:32:06;;;;;;;8.48;3.47;;;19.40;72.90;;;;;;4959821;28;20022;-73
2023/08/09 08:34:32;;;;;;;8.40;3.28;;;19.80;72.90;;;;;;4965135;28;20057;-74
2023/08/09 08:36:59;;;;;;;9.02;3.47;;;20.00;69.60;;;;;;4962920;28;20022;-73
2023/08/09 08:39:25;;;;;;;8.65;3.15;;;20.00;70.70;;;;;;4959325;28;20102;-73
2023/08/09 08:41:51;;;;;;;8.10;3.70;;;20.30;70.80;;;;;;4960002;28;20062;-74
2023/08/09 08:44:17;;;;;;;7.95;3.60;;;20.60;70.00;;;;;;4956648;28;20380;-74
2023/08/09 08:46:44;;;;;;;13.25;4.10;;;20.70;67.40;;;;;;4973210;28;20539;-75
2023/08/09 08:49:14;;;;;;;8.65;3.90;;;20.70;68.10;;;;;;4970433;28;20456;-73
2023/08/09 08:51:43;;;;;;;10.10;3.72;;;20.80;68.40;;;;;;4978195;28;20023;-73
2023/08/09 08:54:12;;;;;;;8.27;3.58;;;20.70;69.00;;;;;;4968171;28;20090;-74
2023/08/09 08:56:38;;;;;;;5.90;3.17;;;20.40;67.80;;;;;;4943573;28;20059;-73
2023/08/09 08:59:06;;;;;;;8.77;3.60;;;20.30;68.40;;;;;;4948618;28;20094;-74
2023/08/09 09:01:32;;;;;;;7.40;3.53;;;20.20;69.20;;;;;;4947925;28;20625;-73
2023/08/09 09:03:58;;;;;;;9.25;3.55;;;20.50;67.90;;;;;;4961009;28;20039;-73
2023/08/09 09:06:23;;;;;;;8.85;3.97;;;20.80;69.00;;;;;;4972173;28;20037;-74
2023/08/09 09:08:55;;;;;;;10.10;3.58;;;21.00;68.40;;;;;;4968306;28;20051;-74
2023/08/09 09:11:22;;;;;;;19.73;4.65;;;20.90;68.40;;;;;;4956276;28;20033;-74
2023/08/09 09:13:50;;;;;;;9.50;3.22;;;20.80;68.40;;;;;;4963732;28;20267;-73
2023/08/09 09:16:17;;;;;;;8.13;3.10;;;20.80;66.70;;;;;;4971482;28;20037;-73
2023/08/09 09:18:47;;;;;;;8.50;3.15;;;20.70;67.80;;;;;;4966096;28;20037;-73
2023/08/09 09:21:14;;;;;;;8.75;3.15;;;20.40;67.30;;;;;;4973682;28;20574;-72
2023/08/09 09:23:40;;;;;;;9.60;2.90;;;20.10;68.00;;;;;;4967584;28;20431;-73
2023/08/09 09:26:10;;;;;;;5.60;2.90;;;20.40;67.80;;;;;;4967513;28;20030;-75
2023/08/09 09:28:41;;;;;;;6.32;2.45;;;20.80;66.00;;;;;;4960448;28;20538;-74
2023/08/09 09:31:12;;;;;;;5.47;2.00;;;21.20;64.90;;;;;;4967739;28;20027;-74
2023/08/09 09:33:39;;;;;;;7.38;2.30;;;21.20;61.70;;;;;;4964933;28;20130;-74
2023/08/09 09:36:09;;;;;;;3.72;1.90;;;21.20;61.70;;;;;;4972961;28;20031;-74
2023/08/09 09:38:36;;;;;;;5.93;2.08;;;21.10;60.10;;;;;;4969434;28;20035;-73
2023/08/09 09:41:02;;;;;;;5.38;2.38;;;21.30;62.00;;;;;;4966667;28;20033;-73
2023/08/09 09:43:36;;;;;;;5.13;2.05;;;21.40;62.40;;;;;;4963193;28;20046;-73
2023/08/09 09:46:02;;;;;;;;;;;21.20;59.80;;;;;;4975373;28;20210;-72
2023/08/09 09:48:29;;;;;;;7.25;1.90;;;21.10;62.40;;;;;;4971696;28;20381;-73
2023/08/09 09:50:56;;;;;;;7.30;2.10;;;21.40;61.10;;;;;;4973985;28;20125;-73
2023/08/09 09:53:22;;;;;;;6.68;2.13;;;21.80;61.80;;;;;;4969317;28;20182;-73
2023/08/09 09:55:47;;;;;;;5.75;2.35;;;21.90;58.40;;;;;;4965009;28;20065;-73
2023/08/09 09:58:13;;;;;;;5.72;2.20;;;22.00;59.70;;;;;;4976870;28;20046;-72
2023/08/09 10:00:49;;;;;;;4.95;2.10;;;21.50;61.20;;;;;;4950820;28;20044;-73
2023/08/09 10:03:18;;;;;;;6.82;2.60;;;21.20;61.10;;;;;;4953258;28;20065;-73
2023/08/09 10:05:46;;;;;;;7.63;2.38;;;21.40;61.90;;;;;;4950235;28;20388;-72
2023/08/09 10:08:13;;;;;;;5.80;2.55;;;22.00;61.90;;;;;;4950588;28;20035;-74
2023/08/09 10:10:41;;;;;;;7.20;2.47;;;21.90;60.10;;;;;;4965087;28;20070;-72
2023/08/09 10:13:09;;;;;;;6.97;2.50;;;22.10;59.30;;;;;;4967389;28;20067;-74
2023/08/09 10:15:41;;;;;;;6.35;2.50;;;21.90;57.90;;;;;;4949990;28;20042;-73
2023/08/09 10:18:14;;;;;;;7.53;2.45;;;22.30;58.50;;;;;;4949816;28;20027;-74
2023/08/09 10:20:47;;;;;;;15.48;3.45;;;22.50;58.20;;;;;;4963076;28;20597;-73
2023/08/09 10:23:24;;;;;;;5.53;2.70;;;22.50;58.40;;;;;;4956498;28;20452;-73
2023/08/09 10:25:51;;;;;;;3.85;1.90;;;22.60;58.60;;;;;;4948199;28;20536;-73
2023/08/09 10:28:18;;;;;;;6.43;2.45;;;22.60;57.90;;;;;;4947500;28;20036;-75
2023/08/09 10:30:49;;;;;;;4.80;2.40;;;22.10;57.50;;;;;;4942433;28;20050;-74
2023/08/09 10:33:19;;;;;;;4.95;2.40;;;21.70;58.00;;;;;;4943255;28;20490;-73
2023/08/09 10:35:54;;;;;;;6.57;2.70;;;21.40;60.20;;;;;;4947950;28;20046;-74
2023/08/09 10:38:41;;;;;;;7.47;3.20;;;21.60;62.30;;;;;;4963670;28;20112;-75
2023/08/09 10:41:09;;;;;;;6.75;2.50;;;21.70;59.00;;;;;;4951070;28;20024;-76
2023/08/09 10:43:35;;;;;;;6.25;2.75;;;22.20;58.50;;;;;;4954390;28;20118;-77
2023/08/09 10:46:18;;;;;;;7.53;2.67;;;21.80;58.30;;;;;;4951140;28;20073;-73
2023/08/09 10:48:58;;;;;;;7.28;2.42;;;21.60;58.50;;;;;;4953253;28;20066;-75
2023/08/09 10:51:25;;;;;;;8.82;2.92;;;21.70;57.90;;;;;;4956453;28;20484;-73
2023/08/09 10:54:05;;;;;;;5.50;2.50;;;21.70;59.50;;;;;;4961123;28;20097;-74
2023/08/09 10:56:34;;;;;;;5.60;1.92;;;21.50;57.80;;;;;;4967199;28;20035;-73
2023/08/09 10:59:08;;;;;;;5.43;2.05;;;21.30;57.50;;;;;;4957011;28;20049;-73
2023/08/09 11:01:37;;;;;;;6.22;2.25;;;21.60;59.30;;;;;;4959697;28;20436;-74
2023/08/09 11:04:08;;;;;;;6.13;2.30;;;22.10;58.40;;;;;;4961885;28;20039;-73
2023/08/09 11:06:40;;;;;;;6.72;2.30;;;22.50;56.30;;;;;;4962325;28;20042;-73
2023/08/09 11:09:11;;;;;;;4.03;2.33;;;22.30;55.50;;;;;;4961947;28;20039;-74
2023/08/09 11:11:39;;;;;;;5.43;2.30;;;22.50;57.20;;;;;;4961588;28;20026;-73
2023/08/09 11:14:05;;;;;;;6.97;2.38;;;22.00;56.20;;;;;;4963187;28;20519;-73
2023/08/09 11:16:31;;;;;;;4.63;1.95;;;21.50;57.60;;;;;;4964744;28;20066;-73
2023/08/09 11:19:12;;;;;;;6.25;2.40;;;21.60;59.10;;;;;;4963407;28;20053;-72
2023/08/09 11:21:45;;;;;;;6.50;2.67;;;21.80;56.80;;;;;;4962364;28;20022;-72
2023/08/09 11:24:12;;;;;;;6.38;1.98;;;21.70;57.80;;;;;;4961070;28;20138;-72
2023/08/09 11:26:45;;;;;;;8.27;2.33;;;21.80;56.50;;;;;;4963371;28;20034;-73
2023/08/09 11:29:11;;;;;;;6.68;2.10;;;22.10;56.90;;;;;;4941468;28;20106;-72
2023/08/09 11:31:42;;;;;;;4.50;1.75;;;22.50;55.80;;;;;;4944608;29;20035;-73
2023/08/09 11:34:11;;;;;;;6.38;2.10;;;22.30;53.90;;;;;;4942893;28;20031;-73
2023/08/09 11:36:38;;;;;;;7.78;2.33;;;22.20;54.90;;;;;;4944903;28;20031;-72
2023/08/09 11:39:05;;;;;;;4.45;1.70;;;22.30;53.50;;;;;;4946242;28;20031;-72
2023/08/09 11:41:40;;;;;;;4.22;1.50;;;22.20;54.70;;;;;;4946925;28;20102;-73
2023/08/09 11:44:06;;;;;;;6.45;2.10;;;22.60;54.40;;;;;;4955902;28;20050;-72
2023/08/09 11:46:31;;;;;;;5.18;1.50;;;22.80;55.70;;;;;;4944311;28;20031;-74
2023/08/09 11:49:03;;;;;;;4.97;1.83;;;22.70;53.00;;;;;;4958684;28;20034;-73
2023/08/09 11:51:32;;;;;;;3.72;1.80;;;22.30;51.40;;;;;;4961709;28;20073;-73
2023/08/09 11:53:57;;;;;;;3.97;1.90;;;22.60;54.20;;;;;;4956410;28;20361;-73
2023/08/09 11:56:23;;;;;;;4.57;1.70;;;22.30;52.70;;;;;;4944926;28;20137;-72
2023/08/09 11:58:54;;;;;;;5.07;1.63;;;22.70;52.50;;;;;;4944455;28;20042;-74
2023/08/09 12:01:28;;;;;;;4.88;1.80;;;22.70;52.30;;;;;;4958311;28;20031;-72
2023/08/09 12:03:56;;;;;;;5.47;1.85;;;22.60;53.30;;;;;;4962424;28;20035;-72
2023/08/09 12:06:49;;;;;;;3.70;1.60;;;22.90;53.20;;;;;;4960060;28;20368;-73
2023/08/09 12:09:42;;;;;;;5.63;1.93;;;22.80;53.60;;;;;;4961510;28;20073;-73
2023/08/09 12:12:13;;;;;;;6.45;2.33;;;22.80;52.00;;;;;;4966973;28;20041;-73
2023/08/09 12:14:49;;;;;;;6.00;1.70;;;22.70;52.50;;;;;;4963958;28;20051;-73
2023/08/09 12:17:29;;;;;;;5.07;1.50;;;22.70;52.60;;;;;;4946909;28;20035;-73
2023/08/09 12:20:00;;;;;;;5.28;1.55;;;22.60;49.00;;;;;;4951942;28;20038;-74
2023/08/09 12:22:27;;;;;;;4.28;1.80;;;22.60;52.90;;;;;;4953595;28;20043;-74
2023/08/09 12:24:54;;;;;;;4.22;2.08;;;23.10;52.40;;;;;;4949832;28;20039;-73
2023/08/09 12:27:20;;;;;;;4.88;2.00;;;23.30;53.60;;;;;;4952320;28;20075;-74
2023/08/09 12:29:49;;;;;;;5.85;1.80;;;23.00;51.30;;;;;;4962973;28;20085;-75
2023/08/09 12:32:15;;;;;;;6.72;2.10;;;22.70;52.80;;;;;;4973571;28;20580;-74
2023/08/09 12:34:42;;;;;;;6.05;2.13;;;22.80;51.20;;;;;;4969264;28;20567;-73
2023/08/09 12:37:08;;;;;;;3.95;1.92;;;22.80;51.00;;;;;;4966774;28;20040;-74
2023/08/09 12:39:34;;;;;;;8.05;2.15;;;22.90;53.30;;;;;;4958842;28;20850;-72